createdAt,value
2023-01-08T00:04:06.512Z,6.9171
2023-01-08T00:14:08.200Z,6.91425
2023-01-08T00:24:09.730Z,6.84226
2023-01-08T00:34:11.371Z,6.65579
2023-01-08T00:44:12.544Z,6.57207
2023-01-08T00:54:13.638Z,6.60093
2023-01-08T01:04:14.786Z,6.59269
2023-01-08T01:14:15.904Z,6.5448
2023-01-08T01:24:17.063Z,6.54956
2023-01-08T01:34:18.152Z,6.5578
2023-01-08T01:44:19.289Z,6.55305
2023-01-08T01:54:20.690Z,6.58064
2023-01-08T02:04:21.932Z,6.59459
2023-01-08T02:14:23.091Z,6.60125
2023-01-08T02:24:24.336Z,6.55844
2023-01-08T02:34:25.580Z,6.58381
2023-01-08T02:44:26.768Z,6.58286
2023-01-08T02:54:27.854Z,6.66975
2023-01-08T03:04:28.981Z,6.86002
2023-01-08T03:14:30.220Z,7.00304
2023-01-08T03:24:31.575Z,7.08518
2023-01-08T03:34:32.705Z,7.07312
2023-01-08T03:44:33.822Z,7.17778
2023-01-08T03:54:34.938Z,7.18
2023-01-08T04:04:36.260Z,7.1467
2023-01-08T04:14:37.506Z,7.11403
2023-01-08T04:24:38.625Z,7.13465
2023-01-08T04:34:39.988Z,7.13021
2023-01-08T04:44:41.452Z,7.18285
2023-01-08T04:54:42.698Z,7.18919
2023-01-08T05:04:43.852Z,7.09184
2023-01-08T05:14:45.013Z,7.07471
2023-01-08T05:24:46.140Z,6.99606
2023-01-08T05:34:47.429Z,6.9431
2023-01-08T05:44:48.536Z,6.9133
2023-01-08T05:54:49.685Z,6.97038
2023-01-08T06:04:51.082Z,7.01604
2023-01-08T06:14:52.487Z,7.01287
2023-01-08T06:24:53.633Z,6.95642
2023-01-08T06:34:54.799Z,6.94628
2023-01-08T06:44:55.945Z,6.93993
2023-01-08T06:54:57.082Z,6.93518
2023-01-08T07:04:58.235Z,7.00463
2023-01-08T07:14:59.357Z,7.12164
2023-01-08T07:25:00.761Z,7.02683
2023-01-08T07:35:02.242Z,7.02365
2023-01-08T07:45:03.910Z,6.92852
2023-01-08T07:55:05.641Z,6.87619
2023-01-08T08:05:07.373Z,6.88602
2023-01-08T08:15:09.203Z,6.86446
2023-01-08T08:25:10.852Z,6.77123
2023-01-08T08:35:12.460Z,6.67323
2023-01-08T08:45:13.608Z,6.60505
2023-01-08T08:55:14.761Z,6.58634
2023-01-08T09:05:15.931Z,6.5578
2023-01-08T09:15:17.067Z,6.56573
2023-01-08T09:25:18.180Z,6.6171
2023-01-08T09:35:19.347Z,6.6837
2023-01-08T09:45:20.813Z,6.90473
2023-01-08T09:55:21.958Z,7.10198
2023-01-08T10:05:23.080Z,7.03126
2023-01-08T10:15:24.273Z,7.01699
2023-01-08T10:25:25.432Z,7.01699
2023-01-08T10:35:26.700Z,7.04966
2023-01-08T10:45:27.941Z,7.09469
2023-01-08T10:55:29.178Z,7.1819
2023-01-08T11:05:30.587Z,7.09057
2023-01-08T11:15:31.914Z,7.05473
2023-01-08T11:25:33.015Z,7.2152
2023-01-08T11:35:34.226Z,7.60653
2023-01-08T11:45:35.435Z,8.01054
2023-01-08T11:55:36.615Z,8.04416
2023-01-08T12:05:37.795Z,7.96202
2023-01-08T12:15:38.937Z,7.81868
2023-01-08T12:25:40.151Z,7.70896
2023-01-08T12:35:41.536Z,7.71054
2023-01-08T12:45:42.729Z,7.75367
2023-01-08T12:55:43.877Z,7.84405
2023-01-08T13:05:45.023Z,7.91001
2023-01-08T13:15:46.154Z,8.02101
2023-01-08T13:25:47.262Z,8.27661
2023-01-08T13:35:48.441Z,8.34099
2023-01-08T13:45:49.836Z,8.38539
2023-01-08T13:55:51.260Z,8.48306
2023-01-08T14:05:52.435Z,8.60198
2023-01-08T14:15:53.703Z,8.6838
2023-01-08T14:25:54.856Z,8.75484
2023-01-08T14:35:55.988Z,8.48972
2023-01-08T14:45:57.216Z,8.27566
2023-01-08T14:55:58.449Z,8.1967
2023-01-08T15:05:59.599Z,8.00039
2023-01-08T15:16:00.944Z,7.90177
2023-01-08T15:26:02.687Z,7.83137
2023-01-08T15:36:04.459Z,7.73306
2023-01-08T15:46:06.147Z,7.60082
2023-01-08T15:56:07.947Z,7.50568
2023-01-08T16:06:09.661Z,7.16414
2023-01-08T16:16:11.396Z,7.06425
2023-01-08T16:26:12.623Z,7.04332
2023-01-08T16:36:13.788Z,7.01033
2023-01-08T16:46:15.123Z,6.74776
2023-01-08T16:56:16.296Z,6.65516
2023-01-08T17:06:17.518Z,6.51055
2023-01-08T17:16:19.047Z,6.40971
2023-01-08T17:26:20.976Z,6.33392
2023-01-08T17:36:22.146Z,6.22356
2023-01-08T17:46:23.323Z,6.19216
2023-01-08T17:56:24.492Z,6.22229
2023-01-08T18:06:25.648Z,6.29555
2023-01-08T18:16:26.862Z,6.29459
2023-01-08T18:26:28.066Z,6.25147
2023-01-08T18:36:29.232Z,6.21214
2023-01-08T18:46:30.565Z,6.16299
2023-01-08T18:56:31.753Z,6.04724
2023-01-08T19:06:32.931Z,5.9724
2023-01-08T19:16:34.171Z,5.85158
2023-01-08T19:26:36.562Z,5.70031
2023-01-08T19:36:37.721Z,5.54366
2023-01-08T19:46:38.843Z,5.40603
2023-01-08T19:56:40.001Z,5.28775
2023-01-08T20:06:41.421Z,5.24462
2023-01-08T20:16:43.332Z,5.22305
2023-01-08T20:26:44.510Z,5.15012
2023-01-08T20:36:45.668Z,5.05942
2023-01-08T20:46:46.786Z,5.06894
2023-01-08T20:56:48.069Z,5.08543
2023-01-08T21:06:49.225Z,5.20308
2023-01-08T21:16:50.642Z,5.24874
2023-01-08T21:26:51.793Z,5.2925
2023-01-08T21:36:53.139Z,5.31977
2023-01-08T21:46:54.387Z,5.32485
2023-01-08T21:56:55.507Z,5.33119
2023-01-08T22:06:56.648Z,5.31058
2023-01-08T22:17:03.216Z,5.25096
2023-01-08T22:27:05.119Z,5.22496
2023-01-08T22:37:06.832Z,5.17422
2023-01-08T22:47:08.587Z,5.12475
2023-01-08T22:57:10.046Z,5.11428
2023-01-08T23:07:11.600Z,4.98236
2023-01-08T23:17:12.781Z,4.83998
2023-01-08T23:27:14.023Z,4.72994
2023-01-08T23:37:15.295Z,4.62244
2023-01-08T23:47:16.788Z,4.5717
2023-01-08T23:54:30.371Z,4.5216
